createdAt,value
2022-09-05T00:02:06.616Z,8.70
2022-09-05T00:04:52.920Z,5.32
2022-09-05T00:07:58.941Z,7.22
2022-09-05T00:11:40.511Z,9.55
2022-09-05T00:13:47.489Z,7.65
2022-09-05T00:16:47.028Z,7.30
2022-09-05T00:24:22.656Z,5.32
2022-09-05T00:24:34.657Z,3.97
2022-09-05T00:26:25.283Z,4.35
2022-09-05T00:29:21.764Z,9.48
2022-09-05T00:32:24.284Z,4.83
2022-09-05T00:35:34.387Z,6.03
2022-09-05T00:38:16.622Z,7.40
2022-09-05T00:40:54.276Z,9.32
2022-09-05T00:43:27.657Z,10.02
2022-09-05T00:46:13.690Z,8.50
2022-09-05T00:48:49.246Z,5.75
2022-09-05T00:51:56.280Z,6.00
2022-09-05T00:54:56.285Z,6.28
2022-09-05T00:58:02.783Z,10.00
2022-09-05T01:00:58.972Z,6.90
2022-09-05T01:03:37.292Z,6.82
2022-09-05T01:06:20.730Z,7.75
2022-09-05T01:09:08.777Z,6.13
2022-09-05T01:11:52.878Z,9.23
2022-09-05T01:14:49.968Z,8.30
2022-09-05T01:17:37.875Z,5.95
2022-09-05T01:20:38.301Z,6.75
2022-09-05T01:23:31.566Z,9.55
2022-09-05T01:26:43.316Z,6.80
2022-09-05T01:29:42.877Z,7.50
2022-09-05T01:32:55.300Z,8.35
2022-09-05T01:36:07.687Z,7.50
2022-09-05T01:39:55.208Z,11.95
2022-09-05T01:42:23.589Z,8.23
2022-09-05T01:45:03.473Z,7.55
2022-09-05T01:47:40.754Z,9.32
2022-09-05T01:50:35.539Z,8.95
2022-09-05T01:53:28.141Z,7.45
2022-09-05T01:56:11.189Z,8.50
2022-09-05T01:58:51.166Z,7.88
2022-09-05T02:01:25.342Z,9.40
2022-09-05T02:04:46.563Z,8.35
2022-09-05T02:07:52.791Z,9.88
2022-09-05T02:10:50.122Z,8.65
2022-09-05T02:13:45.071Z,8.15
2022-09-05T02:16:31.606Z,8.90
2022-09-05T02:19:14.879Z,9.13
2022-09-05T02:21:57.562Z,8.70
2022-09-05T02:24:31.018Z,10.07
2022-09-05T02:28:03.489Z,8.20
2022-09-05T02:30:25.198Z,12.02
2022-09-05T02:33:08.339Z,9.57
2022-09-05T02:35:52.812Z,9.02
2022-09-05T02:40:19.011Z,12.05
2022-09-05T02:45:10.556Z,12.30
2022-09-05T02:45:13.247Z,9.88
2022-09-05T02:47:45.148Z,9.40
2022-09-05T02:56:40.499Z,6.93
2022-09-05T02:57:36.373Z,7.78
2022-09-05T02:57:46.255Z,11.10
2022-09-05T02:59:55.615Z,8.48
2022-09-05T03:02:26.683Z,9.70
2022-09-05T03:05:18.918Z,9.03
2022-09-05T03:07:51.913Z,8.07
2022-09-05T03:10:54.554Z,8.40
2022-09-05T03:13:27.535Z,9.27
2022-09-05T03:16:15.759Z,10.45
2022-09-05T03:19:03.853Z,9.15
2022-09-05T03:22:01.308Z,9.20
2022-09-05T03:24:36.557Z,8.82
2022-09-05T03:27:54.271Z,9.48
2022-09-05T03:30:27.474Z,8.27
2022-09-05T03:33:34.332Z,9.25
2022-09-05T03:36:25.535Z,9.57
2022-09-05T03:39:13.468Z,8.25
2022-09-05T03:42:19.951Z,8.77
2022-09-05T03:45:36.704Z,11.80
2022-09-05T03:48:28.650Z,9.20
2022-09-05T03:57:12.568Z,11.07
2022-09-05T03:57:17.660Z,9.40
2022-09-05T03:57:41.683Z,12.90
2022-09-05T04:00:25.256Z,8.48
2022-09-05T04:08:06.237Z,8.55
2022-09-05T04:08:19.485Z,10.27
2022-09-05T04:09:31.275Z,11.48
2022-09-05T04:12:18.800Z,9.35
2022-09-05T04:15:21.044Z,9.35
2022-09-05T04:18:04.218Z,12.02
2022-09-05T04:20:42.044Z,9.13
2022-09-05T04:23:39.461Z,8.68
2022-09-05T04:26:24.375Z,8.18
2022-09-05T04:29:04.068Z,11.57
2022-09-05T04:32:18.709Z,12.02
2022-09-05T04:35:14.426Z,10.70
2022-09-05T04:37:59.582Z,10.40
2022-09-05T04:40:43.014Z,9.50
2022-09-05T04:43:32.736Z,12.35
2022-09-05T04:46:13.865Z,14.85
2022-09-05T04:48:58.022Z,16.90
2022-09-05T04:52:03.346Z,17.27
2022-09-05T04:54:52.921Z,8.57
2022-09-05T04:57:39.889Z,10.43
2022-09-05T05:05:58.908Z,17.98
2022-09-05T05:06:15.109Z,19.13
2022-09-05T05:06:51.818Z,10.15
2022-09-05T05:09:31.901Z,11.50
2022-09-05T05:17:40.367Z,12.00
2022-09-05T05:18:06.171Z,16.75
2022-09-05T05:18:38.739Z,13.20
2022-09-05T05:21:21.267Z,11.65
2022-09-05T05:23:57.228Z,11.60
2022-09-05T05:26:56.648Z,12.25
2022-09-05T05:29:47.909Z,13.52
2022-09-05T05:32:45.103Z,13.48
2022-09-05T05:35:26.338Z,10.52
2022-09-05T05:38:11.553Z,25.23
2022-09-05T05:40:51.199Z,9.85
2022-09-05T05:43:25.781Z,14.82
2022-09-05T05:46:01.568Z,13.48
2022-09-05T05:48:42.182Z,11.20
2022-09-05T05:52:02.215Z,13.18
2022-09-05T05:54:49.462Z,11.73
2022-09-05T05:57:45.765Z,12.02
2022-09-05T06:00:27.889Z,14.27
2022-09-05T06:06:35.277Z,10.63
2022-09-05T06:13:46.055Z,12.73
2022-09-05T06:15:01.766Z,11.73
2022-09-05T06:15:26.879Z,11.38
2022-09-05T06:18:24.326Z,10.80
2022-09-05T06:22:06.750Z,15.68
2022-09-05T06:24:27.953Z,11.75
2022-09-05T06:27:12.684Z,11.77
2022-09-05T06:29:57.617Z,10.25
2022-09-05T06:32:35.607Z,10.38
2022-09-05T06:35:11.098Z,10.50
2022-09-05T06:38:02.319Z,10.80
2022-09-05T06:40:42.714Z,17.08
2022-09-05T06:44:13.722Z,14.90
2022-09-05T06:47:22.465Z,10.88
2022-09-05T06:50:23.704Z,9.82
2022-09-05T06:53:30.078Z,9.88
2022-09-05T06:56:44.610Z,9.30
2022-09-05T06:59:35.620Z,10.52
2022-09-05T07:02:57.995Z,9.38
2022-09-05T07:05:40.119Z,10.15
2022-09-05T07:08:48.206Z,11.63
2022-09-05T07:11:24.295Z,11.95
2022-09-05T07:14:14.232Z,8.48
2022-09-05T07:16:50.983Z,7.78
2022-09-05T07:19:40.080Z,8.82
2022-09-05T07:22:47.205Z,6.90
2022-09-05T07:25:38.866Z,9.98
2022-09-05T07:28:28.925Z,7.60
2022-09-05T07:31:13.146Z,7.10
2022-09-05T07:34:20.637Z,7.30
2022-09-05T07:37:14.676Z,8.27
2022-09-05T07:40:12.982Z,10.90
2022-09-05T07:43:15.052Z,5.30
2022-09-05T07:45:56.054Z,5.63
2022-09-05T07:48:35.333Z,7.10
2022-09-05T07:56:33.350Z,6.97
2022-09-05T07:57:01.853Z,5.07
2022-09-05T07:57:31.337Z,5.70
2022-09-05T08:00:27.064Z,8.25
2022-09-05T08:03:10.852Z,5.15
2022-09-05T08:05:47.299Z,4.68
2022-09-05T08:08:23.883Z,5.57
2022-09-05T08:11:25.550Z,4.68
2022-09-05T08:14:44.947Z,3.20
2022-09-05T08:17:11.912Z,4.00
2022-09-05T08:19:41.296Z,6.57
2022-09-05T08:22:19.195Z,3.15
2022-09-05T08:24:59.766Z,4.38
2022-09-05T08:27:54.283Z,5.07
2022-09-05T08:30:26.601Z,5.18
2022-09-05T08:33:12.715Z,5.32
2022-09-05T08:35:59.341Z,2.72
2022-09-05T08:38:40.818Z,3.20
2022-09-05T08:41:49.403Z,3.10
2022-09-05T08:46:41.903Z,4.43
2022-09-05T08:47:50.122Z,4.60
2022-09-05T08:50:39.776Z,3.15
2022-09-05T08:53:46.463Z,4.85
2022-09-05T08:56:28.000Z,5.03
2022-09-05T08:59:27.663Z,6.28
2022-09-05T09:02:47.186Z,2.28
2022-09-05T09:05:56.729Z,4.20
2022-09-05T09:11:00.586Z,4.13
2022-09-05T09:13:40.120Z,2.67
2022-09-05T09:16:41.208Z,2.80
2022-09-05T09:19:48.311Z,2.08
2022-09-05T09:22:33.250Z,3.72
2022-09-05T09:25:16.583Z,5.00
2022-09-05T09:28:49.556Z,2.53
2022-09-05T09:31:39.683Z,3.03
2022-09-05T09:34:39.560Z,5.53
2022-09-05T09:37:12.303Z,3.42
2022-09-05T09:40:06.695Z,7.00
2022-09-05T09:42:58.145Z,3.45
2022-09-05T09:46:20.950Z,1.58
2022-09-05T09:49:10.728Z,6.68
2022-09-05T09:52:20.540Z,3.97
2022-09-05T09:55:27.169Z,1.50
2022-09-05T09:58:40.546Z,2.03
2022-09-05T10:01:35.845Z,7.18
2022-09-05T10:10:34.545Z,1.30
2022-09-05T10:10:44.275Z,2.78
2022-09-05T10:14:45.110Z,2.88
2022-09-05T10:17:23.936Z,1.85
2022-09-05T10:20:10.819Z,6.13
2022-09-05T10:23:18.852Z,5.95
2022-09-05T10:26:35.829Z,1.58
2022-09-05T10:29:36.712Z,1.45
2022-09-05T10:35:11.771Z,1.88
2022-09-05T10:35:22.628Z,1.25
2022-09-05T10:38:06.414Z,2.00
2022-09-05T10:41:09.709Z,1.80
2022-09-05T10:43:36.197Z,4.88
2022-09-05T10:46:49.736Z,4.03
2022-09-05T10:49:18.831Z,1.20
2022-09-05T10:51:55.476Z,2.43
2022-09-05T10:54:51.261Z,1.30
2022-09-05T10:57:24.037Z,1.98
2022-09-05T11:02:22.750Z,2.03
2022-09-05T11:03:25.300Z,2.90
2022-09-05T11:06:09.023Z,2.20
2022-09-05T11:08:56.439Z,2.83
2022-09-05T11:11:35.253Z,2.00
2022-09-05T11:14:26.718Z,1.02
2022-09-05T11:19:46.059Z,2.78
2022-09-05T11:22:22.575Z,1.73
2022-09-05T11:24:56.806Z,1.98
2022-09-05T11:27:40.131Z,1.92
2022-09-05T11:30:29.975Z,2.63
2022-09-05T11:39:57.799Z,2.72
2022-09-05T11:40:05.989Z,4.60
2022-09-05T11:40:31.533Z,1.20
2022-09-05T11:42:51.891Z,0.90
2022-09-05T11:46:05.331Z,1.42
2022-09-05T11:49:10.043Z,4.22
2022-09-05T11:52:04.182Z,4.28
2022-09-05T11:55:01.031Z,2.33
2022-09-05T11:57:43.527Z,2.13
2022-09-05T12:00:36.936Z,2.35
2022-09-05T12:03:56.511Z,2.75
2022-09-05T12:06:59.595Z,2.00
2022-09-05T12:09:53.598Z,3.08
2022-09-05T12:12:39.101Z,1.92
2022-09-05T12:15:34.030Z,2.30
2022-09-05T12:18:43.382Z,3.58
2022-09-05T12:21:50.500Z,1.35
2022-09-05T12:25:26.264Z,1.98
2022-09-05T12:27:36.510Z,1.50
2022-09-05T12:30:18.280Z,2.22
2022-09-05T12:36:04.904Z,3.88
2022-09-05T12:39:21.500Z,2.45
2022-09-05T12:40:56.294Z,4.53
2022-09-05T12:42:24.115Z,2.97
2022-09-05T12:45:16.022Z,3.15
2022-09-05T12:48:14.825Z,1.38
2022-09-05T12:51:07.801Z,2.13
2022-09-05T12:53:47.783Z,2.50
2022-09-05T13:01:15.448Z,1.75
2022-09-05T13:02:58.813Z,2.13
2022-09-05T13:03:04.681Z,1.27
2022-09-05T13:06:00.413Z,2.53
2022-09-05T13:08:40.641Z,4.80
2022-09-05T13:14:49.162Z,6.55
2022-09-05T13:15:00.653Z,3.30
2022-09-05T13:17:05.671Z,2.20
2022-09-05T13:19:43.605Z,2.30
2022-09-05T13:22:17.311Z,2.42
2022-09-05T13:24:54.383Z,4.90
2022-09-05T13:27:39.536Z,1.83
2022-09-05T13:34:58.608Z,2.20
2022-09-05T13:38:19.875Z,2.65
2022-09-05T13:39:23.099Z,4.72
2022-09-05T13:41:59.479Z,2.35
2022-09-05T13:44:30.471Z,4.72
2022-09-05T13:47:30.869Z,3.17
2022-09-05T13:50:25.748Z,3.22
2022-09-05T13:53:01.075Z,1.63
2022-09-05T13:55:45.874Z,3.40
2022-09-05T13:58:57.249Z,2.25
2022-09-05T14:01:39.704Z,1.40
2022-09-05T14:05:06.416Z,1.35
2022-09-05T14:08:08.525Z,2.20
2022-09-05T14:10:45.179Z,1.55
2022-09-05T14:13:24.503Z,2.58
2022-09-05T14:16:09.188Z,3.33
2022-09-05T14:18:57.156Z,4.80
2022-09-05T14:21:31.548Z,2.65
2022-09-05T14:24:07.672Z,2.17
2022-09-05T14:26:48.619Z,2.25
2022-09-05T14:29:42.329Z,2.08
2022-09-05T14:37:41.990Z,1.58
2022-09-05T14:37:43.461Z,1.70
2022-09-05T14:38:20.299Z,2.58
2022-09-05T14:41:11.843Z,2.38
2022-09-05T14:44:07.958Z,1.65
2022-09-05T14:46:38.760Z,2.13
2022-09-05T14:49:36.273Z,2.70
2022-09-05T14:52:35.437Z,1.48
2022-09-05T14:55:20.577Z,3.38
2022-09-05T15:02:44.208Z,3.33
2022-09-05T15:02:52.812Z,3.42
2022-09-05T15:06:41.758Z,2.20
2022-09-05T15:12:14.065Z,4.32
2022-09-05T15:12:32.986Z,1.75
2022-09-05T15:15:25.778Z,1.75
2022-09-05T15:18:00.583Z,2.15
2022-09-05T15:20:35.897Z,2.15
2022-09-05T15:23:16.246Z,1.77
2022-09-05T15:26:31.064Z,3.28
2022-09-05T15:29:15.749Z,2.55
2022-09-05T15:31:45.904Z,4.15
2022-09-05T15:34:29.491Z,2.92
2022-09-05T15:37:01.016Z,3.40
2022-09-05T15:39:48.719Z,1.65
2022-09-05T15:42:24.267Z,2.35
2022-09-05T15:45:11.108Z,2.33
2022-09-05T15:47:47.346Z,1.73
2022-09-05T15:50:26.378Z,3.08
2022-09-05T15:52:57.106Z,3.60
2022-09-05T15:55:28.776Z,3.33
2022-09-05T15:58:01.060Z,3.45
2022-09-05T16:00:36.588Z,4.57
2022-09-05T16:05:59.486Z,2.22
2022-09-05T16:10:42.219Z,5.88
2022-09-05T16:10:43.468Z,2.80
2022-09-05T16:12:42.557Z,4.10
2022-09-05T16:17:02.474Z,2.38
2022-09-05T16:23:21.114Z,2.85
2022-09-05T16:23:28.095Z,3.60
2022-09-05T16:24:16.425Z,1.95
2022-09-05T16:26:52.336Z,2.90
2022-09-05T16:29:29.410Z,1.70
2022-09-05T16:32:05.553Z,4.57
2022-09-05T16:35:02.552Z,2.45
2022-09-05T16:37:42.298Z,3.10
2022-09-05T16:43:06.311Z,2.88
2022-09-05T16:46:07.155Z,4.15
2022-09-05T16:48:42.511Z,3.80
2022-09-05T16:51:40.418Z,2.65
2022-09-05T16:54:44.983Z,5.20
2022-09-05T16:59:51.140Z,2.20
2022-09-05T17:02:38.753Z,3.40
2022-09-05T17:05:32.549Z,4.35
2022-09-05T17:08:15.403Z,5.40
2022-09-05T17:10:58.222Z,4.00
2022-09-05T17:13:55.706Z,4.45
2022-09-05T17:16:32.257Z,3.35
2022-09-05T17:19:03.831Z,2.60
2022-09-05T17:23:02.806Z,5.03
2022-09-05T17:29:24.927Z,3.60
2022-09-05T17:29:27.606Z,5.10
2022-09-05T17:31:49.779Z,5.10
2022-09-05T17:33:44.687Z,2.92
2022-09-05T17:36:53.044Z,3.50
2022-09-05T17:39:46.598Z,5.22
2022-09-05T17:42:32.215Z,2.15
2022-09-05T17:45:25.199Z,7.30
2022-09-05T17:47:57.597Z,4.35
2022-09-05T17:50:33.307Z,6.35
2022-09-05T17:53:26.967Z,2.25
2022-09-05T17:55:56.285Z,2.97
2022-09-05T17:58:49.039Z,5.10
2022-09-05T18:01:19.224Z,4.82
2022-09-05T18:03:48.639Z,5.53
2022-09-05T18:06:18.541Z,3.45
2022-09-05T18:08:49.159Z,4.47
2022-09-05T18:11:26.273Z,3.53
2022-09-05T18:14:05.039Z,3.75
2022-09-05T18:19:44.892Z,5.53
2022-09-05T18:22:33.349Z,3.50
2022-09-05T18:25:30.604Z,6.72
2022-09-05T18:28:15.214Z,10.88
2022-09-05T18:30:45.303Z,4.47
2022-09-05T18:33:53.963Z,5.35
2022-09-05T18:36:36.455Z,10.10
2022-09-05T18:39:37.023Z,7.05
2022-09-05T18:42:33.502Z,10.32
2022-09-05T18:45:16.191Z,9.18
2022-09-05T18:48:00.031Z,9.73
2022-09-05T18:50:37.596Z,12.82
2022-09-05T18:53:13.274Z,11.88
2022-09-05T18:56:12.424Z,9.00
2022-09-05T18:59:14.754Z,8.32
2022-09-05T19:01:46.562Z,7.65
2022-09-05T19:04:34.503Z,13.52
2022-09-05T19:07:14.876Z,13.40
2022-09-05T19:10:33.801Z,16.13
2022-09-05T19:13:05.409Z,16.42
2022-09-05T19:15:38.423Z,11.25
2022-09-05T19:18:26.290Z,12.23
2022-09-05T19:21:16.768Z,9.40
2022-09-05T19:24:03.979Z,11.40
2022-09-05T19:26:37.509Z,9.43
2022-09-05T19:36:46.813Z,6.43
2022-09-05T19:36:53.008Z,7.50
2022-09-05T19:37:15.101Z,10.88
2022-09-05T19:37:53.672Z,11.07
2022-09-05T19:47:29.369Z,11.23
2022-09-05T19:47:38.547Z,12.88
2022-09-05T19:47:56.533Z,9.05
2022-09-05T19:51:41.125Z,14.48
2022-09-05T19:54:11.223Z,11.63
2022-09-05T19:56:43.673Z,10.68
2022-09-05T19:59:23.412Z,6.03
2022-09-05T20:01:53.462Z,11.25
2022-09-05T20:04:26.503Z,8.70
2022-09-05T20:06:56.026Z,8.48
2022-09-05T20:09:27.606Z,6.68
2022-09-05T20:11:59.944Z,7.25
2022-09-05T20:14:36.855Z,8.45
2022-09-05T20:17:31.186Z,9.15
2022-09-05T20:20:13.767Z,3.55
2022-09-05T20:22:50.391Z,7.47
2022-09-05T20:25:47.277Z,6.88
2022-09-05T20:28:21.406Z,8.60
2022-09-05T20:30:56.859Z,3.78
2022-09-05T20:33:44.664Z,9.85
2022-09-05T20:43:16.114Z,6.50
2022-09-05T20:43:19.076Z,7.32
2022-09-05T20:43:32.278Z,7.07
2022-09-05T20:44:55.628Z,12.10
2022-09-05T20:54:07.263Z,6.43
2022-09-05T20:54:08.851Z,5.35
2022-09-05T20:54:20.952Z,6.28
2022-09-05T20:56:31.018Z,5.97
2022-09-05T20:59:01.216Z,10.93
2022-09-05T21:01:32.586Z,8.63
2022-09-05T21:04:07.899Z,8.75
2022-09-05T21:06:42.867Z,7.20
2022-09-05T21:09:25.159Z,5.32
2022-09-05T21:12:06.019Z,7.57
2022-09-05T21:14:38.679Z,6.55
2022-09-05T21:17:15.234Z,4.13
2022-09-05T21:19:54.004Z,4.93
2022-09-05T21:22:23.902Z,4.40
2022-09-05T21:25:17.985Z,6.80
2022-09-05T21:28:02.910Z,6.03
2022-09-05T21:30:39.358Z,3.33
2022-09-05T21:33:18.328Z,5.00
2022-09-05T21:35:49.668Z,4.75
2022-09-05T21:38:32.851Z,5.10
2022-09-05T21:41:04.226Z,6.50
2022-09-05T21:47:33.662Z,7.72
2022-09-05T21:47:39.906Z,4.93
2022-09-05T21:49:22.671Z,4.53
2022-09-05T21:51:53.241Z,9.88
2022-09-05T21:59:21.069Z,5.07
2022-09-05T21:59:25.703Z,5.20
2022-09-05T22:00:15.431Z,6.10
2022-09-05T22:02:49.050Z,8.60
2022-09-05T22:05:20.178Z,7.20
2022-09-05T22:07:53.411Z,2.67
2022-09-05T22:10:23.561Z,5.80
2022-09-05T22:13:12.874Z,4.90
2022-09-05T22:15:42.260Z,9.93
2022-09-05T22:18:17.499Z,5.35
2022-09-05T22:21:01.373Z,4.13
2022-09-05T22:23:41.304Z,6.70
2022-09-05T22:26:10.650Z,4.18
2022-09-05T22:28:48.845Z,3.22
2022-09-05T22:31:19.997Z,6.88
2022-09-05T22:33:50.946Z,3.55
2022-09-05T22:36:20.761Z,3.28
2022-09-05T22:38:50.284Z,4.97
2022-09-05T22:41:29.974Z,6.63
2022-09-05T22:44:00.680Z,3.35
2022-09-05T22:46:31.136Z,3.63
2022-09-05T22:49:00.495Z,3.10
2022-09-05T22:51:29.815Z,3.15
2022-09-05T22:53:59.304Z,4.07
2022-09-05T22:56:37.807Z,4.30
2022-09-05T22:59:09.288Z,3.00
2022-09-05T23:01:38.698Z,2.42
2022-09-05T23:04:08.083Z,10.55
2022-09-05T23:06:37.545Z,4.88
2022-09-05T23:09:07.012Z,4.22
2022-09-05T23:11:36.380Z,5.20
2022-09-05T23:14:05.991Z,5.28
2022-09-05T23:16:35.393Z,4.35
2022-09-05T23:19:04.737Z,5.40
2022-09-05T23:21:34.073Z,8.73
2022-09-05T23:24:03.404Z,5.13
2022-09-05T23:26:32.773Z,3.00
2022-09-05T23:29:02.071Z,2.45
2022-09-05T23:31:31.473Z,2.22
2022-09-05T23:34:00.909Z,3.67
2022-09-05T23:36:30.290Z,8.88
2022-09-05T23:38:59.720Z,5.20
2022-09-05T23:41:29.114Z,4.53
2022-09-05T23:43:58.419Z,4.18
2022-09-05T23:46:28.147Z,3.45
2022-09-05T23:48:57.495Z,6.45
2022-09-05T23:51:26.803Z,5.35
2022-09-05T23:53:56.144Z,3.78
2022-09-05T23:56:25.481Z,2.65
2022-09-05T23:58:54.824Z,5.07
